Time;durP1;ratioP1;P1;durP2;ratioP2;P2;SDS_P1;SDS_P2;PMS_P1;PMS_P2;Temp;Humidity;BMP_temperature;BMP_pressure;BME280_temperature;BME280_humidity;BME280_pressure;Samples;Min_cycle;Max_cycle;Signal;HPM_P1;HPM_P2
2023/01/21 00:02:10;;;;;;;51.45;19.77;;;1.20;99.90;;;;;;5057959;28;20391;-70
2023/01/21 00:04:36;;;;;;;48.47;19.45;;;1.10;99.90;;;;;;5072690;28;20036;-71
2023/01/21 00:07:04;;;;;;;49.67;21.20;;;1.20;99.90;;;;;;5061352;28;20495;-71
2023/01/21 00:09:29;;;;;;;54.33;19.98;;;1.10;99.90;;;;;;5068940;28;20127;-69
2023/01/21 00:11:55;;;;;;;51.13;20.30;;;1.10;99.90;;;;;;5064775;28;20108;-69
2023/01/21 00:14:20;;;;;;;47.92;21.08;;;1.10;99.90;;;;;;5059642;28;20029;-70
2023/01/21 00:16:46;;;;;;;45.83;19.45;;;1.10;99.90;;;;;;5072545;28;20033;-70
2023/01/21 00:19:12;;;;;;;48.67;20.83;;;1.10;99.90;;;;;;5072494;28;20037;-71
2023/01/21 00:21:37;;;;;;;50.88;19.75;;;1.10;99.90;;;;;;5053784;28;20059;-71
2023/01/21 00:24:03;;;;;;;55.53;20.73;;;1.10;99.90;;;;;;5058138;28;20017;-71
2023/01/21 00:26:28;;;;;;;51.55;20.20;;;1.10;99.90;;;;;;5042532;28;20046;-71
2023/01/21 00:28:54;;;;;;;53.78;22.27;;;1.10;99.90;;;;;;5055159;28;20532;-70
2023/01/21 00:31:20;;;;;;;52.03;21.77;;;1.00;99.90;;;;;;5073072;28;20388;-71
2023/01/21 00:33:47;;;;;;;56.22;20.40;;;1.00;99.90;;;;;;5041311;28;20376;-71
2023/01/21 00:36:13;;;;;;;47.95;18.67;;;1.00;99.90;;;;;;5052007;28;20016;-70
2023/01/21 00:38:39;;;;;;;48.30;20.55;;;1.00;99.90;;;;;;5046849;28;20036;-69
2023/01/21 00:41:12;;;;;;;49.88;19.98;;;0.90;99.90;;;;;;5047309;28;20028;-70
2023/01/21 00:43:41;;;;;;;51.05;20.38;;;1.00;99.90;;;;;;5056414;28;20033;-71
2023/01/21 00:46:07;;;;;;;50.00;21.70;;;1.00;99.90;;;;;;5072642;28;20035;-69
2023/01/21 00:48:33;;;;;;;52.75;20.42;;;0.90;99.90;;;;;;5065137;28;20449;-71
2023/01/21 00:50:59;;;;;;;52.78;20.20;;;0.90;99.90;;;;;;5064184;28;20052;-70
2023/01/21 00:53:26;;;;;;;46.85;17.20;;;0.90;99.90;;;;;;5058064;28;20063;-69
2023/01/21 00:55:52;;;;;;;55.00;21.75;;;0.90;99.90;;;;;;5069269;28;20024;-70
2023/01/21 00:58:17;;;;;;;56.50;21.98;;;0.90;99.90;;;;;;5040463;28;20358;-69
2023/01/21 01:00:43;;;;;;;51.03;19.15;;;0.90;99.90;;;;;;5063815;28;20082;-70
2023/01/21 01:03:09;;;;;;;55.33;20.83;;;0.90;99.90;;;;;;5046811;28;20428;-72
2023/01/21 01:05:36;;;;;;;57.05;22.92;;;0.90;99.90;;;;;;5072026;28;20036;-71
2023/01/21 01:08:02;;;;;;;54.33;22.27;;;0.90;99.90;;;;;;5055822;28;20038;-72
2023/01/21 01:10:27;;;;;;;58.70;22.20;;;0.80;99.90;;;;;;5065978;28;20079;-71
2023/01/21 01:12:53;;;;;;;55.35;21.50;;;0.90;99.90;;;;;;5062573;28;20033;-70
2023/01/21 01:15:18;;;;;;;56.67;22.13;;;0.90;99.90;;;;;;5072664;28;20050;-72
2023/01/21 01:17:44;;;;;;;59.67;24.50;;;0.90;99.90;;;;;;5055587;28;20486;-70
2023/01/21 01:20:10;;;;;;;54.28;20.20;;;0.90;99.90;;;;;;5049199;28;20031;-70
2023/01/21 01:22:35;;;;;;;55.78;21.83;;;0.80;99.90;;;;;;5041536;28;20111;-70
2023/01/21 01:25:01;;;;;;;49.90;20.83;;;0.90;99.90;;;;;;5054185;28;20035;-70
2023/01/21 01:27:29;;;;;;;56.03;20.50;;;0.90;99.90;;;;;;5039157;28;20102;-70
2023/01/21 01:29:54;;;;;;;55.58;20.20;;;0.90;99.90;;;;;;5068191;28;20472;-70
2023/01/21 01:32:20;;;;;;;51.95;20.20;;;0.90;99.90;;;;;;5057303;28;20060;-70
2023/01/21 01:34:45;;;;;;;54.58;21.85;;;0.90;99.90;;;;;;5071522;28;20464;-70
2023/01/21 01:37:11;;;;;;;61.35;20.75;;;0.90;99.90;;;;;;5052022;28;20039;-70
2023/01/21 01:39:36;;;;;;;54.00;19.70;;;0.90;99.90;;;;;;5055875;28;20075;-70
2023/01/21 01:42:02;;;;;;;57.88;23.48;;;0.90;99.90;;;;;;5068630;28;20029;-70
2023/01/21 01:44:53;;;;;;;57.45;20.70;;;0.90;99.90;;;;;;5041086;28;20032;-70
2023/01/21 01:47:19;;;;;;;57.45;24.42;;;0.90;99.90;;;;;;5058086;28;20031;-70
2023/01/21 01:49:46;;;;;;;61.75;25.95;;;0.90;99.90;;;;;;5050391;28;20447;-70
2023/01/21 01:52:13;;;;;;;54.65;21.23;;;0.90;99.90;;;;;;5056710;28;20067;-70
2023/01/21 01:54:43;;;;;;;53.78;22.60;;;0.80;99.90;;;;;;5053596;28;20024;-70
2023/01/21 01:57:12;;;;;;;60.97;24.15;;;0.80;99.90;;;;;;5059556;28;20025;-70
2023/01/21 01:59:39;;;;;;;57.17;23.48;;;0.80;99.90;;;;;;5068385;28;20036;-70
2023/01/21 02:02:08;;;;;;;54.92;21.30;;;0.70;99.90;;;;;;5055606;28;20021;-70
2023/01/21 02:04:43;;;;;;;54.33;22.17;;;0.70;99.90;;;;;;5071651;28;20457;-70
2023/01/21 02:07:08;;;;;;;53.33;19.35;;;0.70;99.90;;;;;;5060121;28;20090;-69
2023/01/21 02:09:34;;;;;;;53.05;20.88;;;0.70;99.90;;;;;;5077331;28;20127;-70
2023/01/21 02:12:02;;;;;;;50.72;19.10;;;0.70;99.90;;;;;;5069656;28;20025;-70
2023/01/21 02:14:29;;;;;;;59.67;21.35;;;0.70;99.90;;;;;;5091374;28;20032;-69
2023/01/21 02:17:16;;;;;;;56.60;21.30;;;0.60;99.90;;;;;;5068456;28;20044;-69
2023/01/21 02:20:10;;;;;;;49.95;19.77;;;0.60;99.90;;;;;;5061209;28;20486;-70
2023/01/21 02:23:14;;;;;;;53.75;19.80;;;0.60;99.90;;;;;;5060266;28;20108;-70
2023/01/21 02:26:11;;;;;;;57.13;22.15;;;0.60;99.90;;;;;;5058664;28;20024;-70
2023/01/21 02:29:02;;;;;;;58.25;23.80;;;0.60;99.90;;;;;;5040981;28;20041;-70
2023/01/21 02:31:32;;;;;;;54.17;20.77;;;0.60;99.90;;;;;;5059111;28;20029;-70
2023/01/21 02:34:14;;;;;;;50.40;20.92;;;0.60;99.90;;;;;;5061538;28;20025;-70
2023/01/21 02:37:20;;;;;;;60.45;23.65;;;0.60;99.90;;;;;;5063400;28;20111;-70
2023/01/21 02:40:16;;;;;;;58.05;22.52;;;0.50;99.90;;;;;;5063565;28;20480;-69
2023/01/21 02:43:11;;;;;;;56.70;22.50;;;0.50;99.90;;;;;;5063067;28;20037;-69
2023/01/21 02:45:42;;;;;;;61.85;23.13;;;0.50;99.90;;;;;;5061386;28;20032;-70
2023/01/21 02:48:17;;;;;;;66.07;25.13;;;0.50;99.90;;;;;;5062899;28;20044;-70
2023/01/21 02:50:49;;;;;;;52.83;21.02;;;0.50;99.90;;;;;;5062934;28;20024;-70
2023/01/21 02:53:34;;;;;;;59.35;23.52;;;0.50;99.90;;;;;;5063514;28;20476;-69
2023/01/21 02:56:14;;;;;;;65.85;23.08;;;0.50;99.90;;;;;;5064181;28;20024;-70
2023/01/21 02:58:45;;;;;;;59.35;22.98;;;0.50;99.90;;;;;;5064112;28;20055;-69
2023/01/21 03:01:51;;;;;;;65.43;23.50;;;0.50;99.90;;;;;;5062323;28;20029;-70
2023/01/21 03:04:32;;;;;;;58.97;22.73;;;0.50;99.90;;;;;;5031836;28;20037;-69
2023/01/21 03:07:30;;;;;;;63.13;24.37;;;0.50;99.90;;;;;;5062588;28;20032;-69
2023/01/21 03:10:03;;;;;;;68.00;25.15;;;0.50;99.90;;;;;;5063936;28;20029;-69
2023/01/21 03:12:36;;;;;;;63.13;24.77;;;0.50;99.90;;;;;;5062274;28;20028;-70
2023/01/21 03:18:37;;;;;;;68.75;25.85;;;0.50;99.90;;;;;;5064787;28;20090;-69
2023/01/21 03:21:17;;;;;;;76.32;25.75;;;0.50;99.90;;;;;;5064451;28;20048;-69
2023/01/21 03:23:46;;;;;;;76.25;26.10;;;0.50;99.90;;;;;;5064625;28;20031;-69
2023/01/21 03:26:16;;;;;;;62.38;24.13;;;0.60;99.90;;;;;;5069080;28;20032;-69
2023/01/21 03:28:46;;;;;;;73.85;26.60;;;0.60;99.90;;;;;;5069194;28;20669;-69
2023/01/21 03:31:18;;;;;;;67.07;24.60;;;0.70;99.90;;;;;;5072573;28;20465;-69
2023/01/21 03:33:47;;;;;;;63.92;24.92;;;0.80;99.90;;;;;;5074383;28;20043;-69
2023/01/21 03:36:39;;;;;;;66.75;25.38;;;0.80;99.90;;;;;;5072957;28;20028;-69
2023/01/21 03:39:16;;;;;;;67.63;26.20;;;0.80;99.90;;;;;;5072978;28;20533;-69
2023/01/21 03:41:41;;;;;;;65.07;24.13;;;0.90;99.90;;;;;;5067872;28;20040;-69
2023/01/21 03:44:07;;;;;;;64.80;25.98;;;0.90;99.90;;;;;;5064311;28;20025;-69
2023/01/21 03:46:47;;;;;;;63.47;24.83;;;0.90;99.90;;;;;;5066504;28;20028;-69
2023/01/21 03:49:24;;;;;;;67.60;25.38;;;0.90;99.90;;;;;;5057059;28;20037;-69
2023/01/21 03:51:53;;;;;;;66.18;24.38;;;0.90;99.90;;;;;;5066529;28;20078;-68
2023/01/21 03:54:19;;;;;;;66.72;25.20;;;0.90;99.90;;;;;;5062230;28;20499;-69
2023/01/21 03:56:44;;;;;;;66.03;25.45;;;1.00;99.90;;;;;;5068990;28;20068;-69
2023/01/21 03:59:10;;;;;;;62.72;24.80;;;1.00;99.90;;;;;;5057278;28;20453;-68
2023/01/21 04:01:35;;;;;;;68.90;25.85;;;1.10;99.90;;;;;;5068615;28;20362;-68
2023/01/21 04:04:01;;;;;;;66.28;23.65;;;1.10;99.90;;;;;;5062878;28;20097;-68
2023/01/21 04:06:27;;;;;;;63.38;24.35;;;1.20;99.90;;;;;;5068453;28;20024;-69
2023/01/21 04:08:52;;;;;;;62.63;23.75;;;1.20;99.90;;;;;;5073358;28;20040;-68
2023/01/21 04:11:18;;;;;;;63.50;24.85;;;1.20;99.90;;;;;;5072840;28;20458;-68
2023/01/21 04:13:43;;;;;;;65.90;25.08;;;1.30;99.90;;;;;;5068825;28;20647;-68
2023/01/21 04:16:09;;;;;;;58.05;23.23;;;1.30;99.90;;;;;;5062635;28;20442;-68
2023/01/21 04:18:34;;;;;;;60.88;23.65;;;1.30;99.90;;;;;;5057660;28;20064;-70
2023/01/21 04:21:00;;;;;;;60.53;23.55;;;1.30;99.90;;;;;;5064756;28;20028;-70
2023/01/21 04:23:25;;;;;;;59.72;24.33;;;1.30;99.90;;;;;;5064690;28;20099;-70
2023/01/21 04:25:51;;;;;;;62.60;24.02;;;1.30;99.90;;;;;;5060019;28;20108;-69
2023/01/21 04:28:18;;;;;;;58.00;24.10;;;1.30;99.90;;;;;;5064630;28;20028;-69
2023/01/21 04:30:45;;;;;;;54.42;20.30;;;1.40;99.90;;;;;;5058710;28;20025;-68
2023/01/21 04:33:11;;;;;;;63.40;23.30;;;1.30;99.90;;;;;;5069762;28;20090;-70
2023/01/21 04:35:36;;;;;;;57.65;21.88;;;1.40;99.90;;;;;;5057804;28;20033;-68
2023/01/21 04:38:02;;;;;;;61.25;24.23;;;1.40;99.90;;;;;;5060592;28;20074;-69
2023/01/21 04:40:28;;;;;;;60.10;23.15;;;1.40;99.90;;;;;;5066009;28;20481;-69
2023/01/21 04:42:53;;;;;;;55.10;21.92;;;1.40;99.90;;;;;;5056933;28;20067;-69
2023/01/21 04:45:19;;;;;;;55.30;23.73;;;1.40;99.90;;;;;;5069735;28;20025;-70
2023/01/21 04:47:45;;;;;;;61.00;22.17;;;1.40;99.90;;;;;;5059958;28;20043;-70
2023/01/21 04:50:12;;;;;;;57.97;23.55;;;1.30;99.90;;;;;;5068312;28;20025;-70
2023/01/21 04:52:38;;;;;;;60.60;24.00;;;1.30;99.90;;;;;;5071426;28;20036;-70
2023/01/21 04:55:04;;;;;;;62.22;24.42;;;1.30;99.90;;;;;;5072979;28;20105;-70
2023/01/21 04:57:30;;;;;;;56.45;22.58;;;1.20;99.90;;;;;;5061992;28;20102;-69
2023/01/21 04:59:55;;;;;;;60.40;22.45;;;1.20;99.90;;;;;;5064332;28;20469;-68
2023/01/21 05:02:21;;;;;;;65.72;24.75;;;1.20;99.90;;;;;;5064836;28;20032;-68
2023/01/21 05:04:46;;;;;;;63.05;22.67;;;1.10;99.90;;;;;;5057632;28;20036;-70
2023/01/21 05:07:13;;;;;;;62.65;24.33;;;1.10;99.90;;;;;;5065521;28;20041;-67
2023/01/21 05:09:39;;;;;;;63.00;23.70;;;1.10;99.90;;;;;;5069590;28;20065;-69
2023/01/21 05:12:05;;;;;;;68.30;24.83;;;1.10;99.90;;;;;;5057004;28;20120;-69
2023/01/21 05:14:31;;;;;;;63.67;25.80;;;1.00;99.90;;;;;;5061127;28;20020;-69
2023/01/21 05:16:57;;;;;;;128.55;31.02;;;1.00;99.90;;;;;;5059099;28;20028;-69
2023/01/21 05:19:23;;;;;;;77.65;26.35;;;1.00;99.90;;;;;;5058442;28;20031;-68
2023/01/21 05:21:48;;;;;;;74.95;25.77;;;1.00;99.90;;;;;;5055509;28;20021;-68
2023/01/21 05:24:14;;;;;;;71.70;25.13;;;1.00;99.90;;;;;;5055934;28;20055;-69
2023/01/21 05:26:39;;;;;;;71.78;26.40;;;1.00;99.90;;;;;;5061022;28;20415;-67
2023/01/21 05:29:05;;;;;;;71.47;25.25;;;1.00;99.90;;;;;;5059129;28;20045;-68
2023/01/21 05:31:31;;;;;;;72.70;26.48;;;1.00;99.90;;;;;;5057912;28;20025;-67
2023/01/21 05:33:56;;;;;;;65.60;25.83;;;1.00;99.90;;;;;;5055328;28;20029;-67
2023/01/21 05:36:22;;;;;;;70.07;24.98;;;0.90;99.90;;;;;;5055767;28;20029;-68
2023/01/21 05:38:47;;;;;;;62.55;25.20;;;0.90;99.90;;;;;;5055655;28;20100;-68
2023/01/21 05:41:13;;;;;;;67.35;24.98;;;0.90;99.90;;;;;;5058039;28;20021;-68
2023/01/21 05:43:39;;;;;;;70.75;24.25;;;0.90;99.90;;;;;;5056143;28;20024;-68
2023/01/21 05:46:05;;;;;;;64.72;25.50;;;0.90;99.90;;;;;;5067685;28;20097;-69
2023/01/21 05:48:30;;;;;;;75.78;27.58;;;0.80;99.90;;;;;;5079019;28;20044;-68
2023/01/21 05:50:56;;;;;;;71.10;25.52;;;0.90;99.90;;;;;;5068852;28;20028;-66
2023/01/21 05:53:23;;;;;;;70.80;26.05;;;0.80;99.90;;;;;;5065752;28;20025;-67
2023/01/21 05:55:56;;;;;;;74.00;26.65;;;0.80;99.90;;;;;;5068849;28;20021;-67
2023/01/21 05:58:23;;;;;;;73.40;25.90;;;0.80;99.90;;;;;;5069233;28;20035;-67
2023/01/21 06:00:49;;;;;;;70.25;27.60;;;0.80;99.90;;;;;;5068846;28;20029;-68
2023/01/21 06:03:15;;;;;;;74.97;26.83;;;0.80;99.90;;;;;;5065721;28;20025;-68
2023/01/21 06:05:41;;;;;;;68.43;25.75;;;0.80;99.90;;;;;;5056078;28;20086;-68
2023/01/21 06:08:08;;;;;;;73.57;27.15;;;0.70;99.90;;;;;;5055369;28;20029;-68
2023/01/21 06:10:34;;;;;;;74.70;26.05;;;0.70;99.90;;;;;;5059531;28;20048;-68
2023/01/21 06:12:59;;;;;;;68.78;26.20;;;0.70;99.90;;;;;;5059923;28;20460;-68
2023/01/21 06:15:25;;;;;;;77.90;27.40;;;0.70;99.90;;;;;;5074428;28;20047;-68
2023/01/21 06:17:51;;;;;;;112.90;32.30;;;0.70;99.90;;;;;;5073084;28;20052;-69
2023/01/21 06:20:17;;;;;;;78.78;27.08;;;0.70;99.90;;;;;;5072279;28;20439;-67
2023/01/21 06:22:44;;;;;;;81.30;29.20;;;0.70;99.90;;;;;;5072499;28;20044;-69
2023/01/21 06:25:10;;;;;;;77.60;26.52;;;0.60;99.90;;;;;;5072213;28;20345;-67
2023/01/21 06:27:37;;;;;;;75.80;26.40;;;0.60;99.90;;;;;;5072983;28;20032;-69
2023/01/21 06:30:06;;;;;;;71.55;27.55;;;0.60;99.90;;;;;;5058843;28;20052;-68
2023/01/21 06:32:33;;;;;;;90.57;30.40;;;0.60;99.90;;;;;;5058964;28;20032;-68
2023/01/21 06:34:59;;;;;;;78.35;26.70;;;0.60;99.90;;;;;;5063306;28;20028;-68
2023/01/21 06:37:25;;;;;;;82.78;29.13;;;0.50;99.90;;;;;;5061737;28;20016;-69
2023/01/21 06:39:50;;;;;;;79.88;28.92;;;0.60;99.90;;;;;;5059195;28;20453;-68
2023/01/21 06:42:16;;;;;;;80.80;28.92;;;0.50;99.90;;;;;;5058938;28;20028;-69
2023/01/21 06:44:43;;;;;;;82.45;28.85;;;0.50;99.90;;;;;;5058616;28;20059;-68
2023/01/21 06:47:08;;;;;;;82.13;29.48;;;0.50;99.90;;;;;;5060687;28;20051;-68
2023/01/21 06:49:34;;;;;;;90.57;29.15;;;0.60;99.90;;;;;;5060179;28;20448;-67
2023/01/21 06:51:59;;;;;;;87.60;30.83;;;0.60;99.90;;;;;;5061217;28;20044;-68
2023/01/21 06:54:25;;;;;;;84.13;28.92;;;0.70;99.90;;;;;;5067493;28;20029;-69
2023/01/21 06:56:51;;;;;;;75.90;26.23;;;0.80;99.90;;;;;;5071986;28;20032;-69
2023/01/21 06:59:16;;;;;;;78.82;28.48;;;0.80;99.90;;;;;;5068881;28;20108;-68
2023/01/21 07:01:43;;;;;;;77.68;26.98;;;0.90;99.90;;;;;;5071370;28;20059;-69
2023/01/21 07:04:08;;;;;;;84.22;30.08;;;1.00;99.90;;;;;;5065530;28;20029;-68
2023/01/21 07:06:34;;;;;;;75.53;27.48;;;1.00;99.90;;;;;;5058386;28;20021;-69
2023/01/21 07:08:59;;;;;;;71.90;25.33;;;1.10;99.90;;;;;;5062089;28;20142;-68
2023/01/21 07:11:25;;;;;;;71.82;25.80;;;1.30;99.90;;;;;;5074031;28;20058;-68
2023/01/21 07:13:50;;;;;;;69.90;26.83;;;1.30;99.90;;;;;;5058420;28;20031;-69
2023/01/21 07:16:16;;;;;;;76.68;26.00;;;1.40;99.90;;;;;;5058225;28;20051;-68
2023/01/21 07:18:41;;;;;;;73.25;25.08;;;1.50;99.90;;;;;;5058161;28;20049;-70
2023/01/21 07:21:07;;;;;;;70.00;26.48;;;1.60;99.90;;;;;;5058348;28;20037;-68
2023/01/21 07:23:32;;;;;;;102.38;28.60;;;1.60;99.90;;;;;;5059821;28;20036;-69
2023/01/21 07:25:58;;;;;;;65.15;25.85;;;1.70;99.90;;;;;;5059081;28;20036;-68
2023/01/21 07:28:24;;;;;;;65.53;25.38;;;1.70;99.90;;;;;;5066904;28;20040;-68
2023/01/21 07:30:50;;;;;;;66.18;24.30;;;1.80;99.90;;;;;;5062245;28;20036;-69
2023/01/21 07:33:15;;;;;;;65.20;24.05;;;1.80;99.90;;;;;;5069703;28;20115;-68
2023/01/21 07:35:41;;;;;;;70.90;24.10;;;1.80;99.90;;;;;;5058438;28;20104;-68
2023/01/21 07:38:06;;;;;;;67.05;23.02;;;1.90;99.90;;;;;;5062484;28;20370;-68
2023/01/21 07:40:32;;;;;;;54.92;20.00;;;1.90;99.90;;;;;;5071100;28;20032;-67
2023/01/21 07:42:57;;;;;;;65.20;23.25;;;1.90;99.90;;;;;;5070956;28;20028;-69
2023/01/21 07:45:24;;;;;;;61.95;23.17;;;1.90;99.90;;;;;;5070760;28;20113;-68
2023/01/21 07:47:49;;;;;;;66.68;23.80;;;1.90;99.90;;;;;;5057546;28;20040;-68
2023/01/21 07:50:15;;;;;;;67.50;23.50;;;1.90;99.90;;;;;;5057498;28;20021;-68
2023/01/21 07:52:42;;;;;;;71.97;26.80;;;2.00;99.90;;;;;;5057544;28;20029;-68
2023/01/21 07:55:08;;;;;;;130.00;30.48;;;2.00;99.90;;;;;;5058433;28;20493;-68
2023/01/21 07:57:34;;;;;;;58.60;22.40;;;2.00;99.90;;;;;;5058287;28;20016;-68
2023/01/21 07:59:59;;;;;;;59.28;22.42;;;2.10;99.90;;;;;;5057203;28;20354;-69
2023/01/21 08:02:25;;;;;;;107.20;26.70;;;2.10;99.90;;;;;;5057418;28;20426;-68
2023/01/21 08:04:50;;;;;;;62.35;23.38;;;2.10;99.90;;;;;;5057055;28;20392;-68
2023/01/21 08:07:16;;;;;;;76.45;22.20;;;2.10;99.90;;;;;;5059536;28;20041;-69
2023/01/21 08:09:41;;;;;;;68.30;22.38;;;2.10;99.90;;;;;;5057230;28;20037;-69
2023/01/21 08:12:08;;;;;;;289.05;46.28;;;2.00;99.90;;;;;;5055022;28;20025;-69
2023/01/21 08:14:34;;;;;;;142.75;27.33;;;2.00;99.90;;;;;;5066164;28;20046;-70
2023/01/21 08:16:59;;;;;;;67.25;22.25;;;2.10;99.90;;;;;;5069566;28;20099;-70
2023/01/21 08:19:25;;;;;;;77.78;21.88;;;2.20;99.90;;;;;;5063040;28;20103;-69
2023/01/21 08:21:51;;;;;;;76.43;23.00;;;2.20;99.90;;;;;;5067724;28;20028;-69
2023/01/21 08:24:16;;;;;;;79.35;22.15;;;2.20;99.90;;;;;;5070052;28;20070;-68
2023/01/21 08:26:42;;;;;;;179.25;31.67;;;2.30;99.90;;;;;;5068780;28;20836;-70
2023/01/21 08:29:07;;;;;;;64.20;23.73;;;2.40;99.90;;;;;;5068351;28;20477;-69
2023/01/21 08:31:33;;;;;;;88.10;22.88;;;2.40;99.90;;;;;;5059688;28;20031;-69
2023/01/21 08:33:58;;;;;;;98.07;24.52;;;2.40;99.90;;;;;;5059461;28;20036;-70
2023/01/21 08:36:24;;;;;;;249.38;37.30;;;2.40;99.90;;;;;;5063867;28;20103;-69
2023/01/21 08:39:04;;;;;;;109.47;26.30;;;2.50;99.90;;;;;;5056247;28;20021;-70
2023/01/21 08:41:30;;;;;;;70.68;22.42;;;2.50;99.90;;;;;;5040359;28;20398;-70
2023/01/21 08:43:55;;;;;;;119.03;25.73;;;2.60;99.90;;;;;;5063522;28;20028;-69
2023/01/21 08:46:21;;;;;;;202.82;32.63;;;2.60;99.90;;;;;;5073166;28;20025;-69
2023/01/21 08:48:46;;;;;;;100.68;24.42;;;2.60;99.90;;;;;;5060188;28;20045;-68
2023/01/21 08:51:13;;;;;;;104.43;24.55;;;2.70;99.90;;;;;;5065159;28;20050;-71
2023/01/21 08:53:39;;;;;;;196.40;35.03;;;2.70;99.90;;;;;;5069082;28;20029;-68
2023/01/21 08:56:05;;;;;;;161.15;29.70;;;2.80;99.90;;;;;;5069410;28;20017;-70
2023/01/21 08:58:31;;;;;;;95.07;22.45;;;2.80;99.90;;;;;;5069400;28;20081;-70
2023/01/21 09:00:57;;;;;;;80.80;23.00;;;2.90;99.90;;;;;;5069369;28;20033;-71
2023/01/21 09:03:23;;;;;;;79.50;23.08;;;2.90;99.90;;;;;;5065683;28;20036;-70
2023/01/21 09:05:50;;;;;;;160.27;27.90;;;3.00;99.90;;;;;;5069206;28;20491;-68
2023/01/21 09:08:19;;;;;;;55.50;21.30;;;3.00;99.90;;;;;;5063952;28;20464;-70
2023/01/21 09:11:00;;;;;;;59.67;22.63;;;3.00;99.90;;;;;;5060362;28;20074;-70
2023/01/21 09:13:27;;;;;;;149.25;28.23;;;3.00;99.90;;;;;;5068746;28;20035;-69
2023/01/21 09:15:52;;;;;;;150.45;28.70;;;2.90;99.90;;;;;;5056500;28;20029;-69
2023/01/21 09:18:18;;;;;;;59.22;21.83;;;2.90;99.90;;;;;;5055934;28;20041;-70
2023/01/21 09:20:44;;;;;;;63.30;22.55;;;2.90;99.90;;;;;;5056165;28;20535;-71
2023/01/21 09:23:32;;;;;;;65.88;22.15;;;2.90;99.90;;;;;;5057652;28;20033;-69
2023/01/21 09:26:00;;;;;;;57.90;21.63;;;2.90;99.90;;;;;;5067505;28;20037;-70
2023/01/21 09:28:26;;;;;;;52.80;20.33;;;2.90;99.90;;;;;;5068912;28;20044;-70
2023/01/21 09:30:56;;;;;;;59.45;22.10;;;2.90;99.90;;;;;;5068967;28;20384;-69
2023/01/21 09:33:22;;;;;;;65.95;22.55;;;2.90;99.90;;;;;;5065138;28;20056;-70
2023/01/21 09:35:55;;;;;;;101.20;23.65;;;3.00;99.90;;;;;;5059819;28;20488;-71
2023/01/21 09:38:20;;;;;;;56.38;21.88;;;3.10;99.90;;;;;;5060849;28;20267;-71
2023/01/21 09:40:46;;;;;;;56.10;20.98;;;3.20;99.90;;;;;;5053171;28;20413;-70
2023/01/21 09:43:25;;;;;;;55.15;21.35;;;3.30;99.90;;;;;;5068559;28;20043;-69
2023/01/21 09:45:55;;;;;;;52.78;21.80;;;3.40;99.90;;;;;;5060377;28;20063;-70
2023/01/21 09:48:41;;;;;;;55.65;22.13;;;3.50;99.90;;;;;;5060813;28;20052;-70
2023/01/21 09:51:33;;;;;;;50.05;20.65;;;3.50;99.90;;;;;;5068890;28;20029;-70
2023/01/21 09:54:00;;;;;;;51.53;19.75;;;3.60;99.90;;;;;;5060778;28;20032;-69
2023/01/21 09:56:38;;;;;;;45.50;19.35;;;3.70;99.90;;;;;;5059917;28;20461;-69
2023/01/21 09:59:15;;;;;;;55.67;21.50;;;3.90;99.90;;;;;;5068555;28;20073;-70
2023/01/21 10:01:41;;;;;;;60.15;25.98;;;4.00;99.90;;;;;;5072135;28;20033;-69
2023/01/21 10:04:46;;;;;;;48.95;20.88;;;4.10;99.90;;;;;;5068994;28;20060;-69
2023/01/21 10:07:27;;;;;;;53.08;21.23;;;4.20;99.90;;;;;;5055418;28;20017;-69
2023/01/21 10:10:20;;;;;;;52.28;22.67;;;4.30;99.90;;;;;;5064401;28;20037;-69
2023/01/21 10:13:07;;;;;;;103.63;25.27;;;4.40;99.90;;;;;;5067271;28;20028;-68
2023/01/21 10:15:35;;;;;;;104.72;24.13;;;4.50;99.90;;;;;;5067265;28;20368;-69
2023/01/21 10:18:08;;;;;;;54.20;21.88;;;4.60;99.90;;;;;;5055035;28;20404;-69
2023/01/21 10:20:52;;;;;;;48.05;20.63;;;4.90;99.90;;;;;;5065810;28;20028;-69
2023/01/21 10:23:37;;;;;;;48.33;21.00;;;5.00;99.90;;;;;;5055511;28;20029;-71
2023/01/21 10:26:07;;;;;;;43.42;18.30;;;5.00;99.90;;;;;;5063018;28;20033;-69
2023/01/21 10:28:36;;;;;;;44.97;18.83;;;5.00;99.90;;;;;;5065071;28;20036;-69
2023/01/21 10:31:10;;;;;;;47.10;19.35;;;5.10;99.90;;;;;;5065425;28;20035;-70
2023/01/21 10:33:36;;;;;;;39.90;16.83;;;5.20;99.90;;;;;;5060974;28;20033;-71
2023/01/21 10:36:01;;;;;;;43.95;17.85;;;5.30;99.90;;;;;;5063292;28;20457;-70
2023/01/21 10:38:38;;;;;;;41.80;16.98;;;5.30;99.90;;;;;;5068541;28;20060;-70
2023/01/21 10:41:31;;;;;;;44.17;18.00;;;5.40;99.90;;;;;;5062700;28;20032;-68
2023/01/21 10:44:00;;;;;;;42.42;18.60;;;5.40;99.90;;;;;;5045493;28;20120;-69
2023/01/21 10:46:59;;;;;;;43.88;18.35;;;5.30;99.90;;;;;;5064322;28;20075;-70
2023/01/21 10:49:47;;;;;;;43.85;19.73;;;5.20;99.90;;;;;;5055624;28;20076;-70
2023/01/21 10:52:29;;;;;;;43.83;18.05;;;5.20;99.90;;;;;;5063770;28;20131;-69
2023/01/21 10:55:16;;;;;;;44.00;18.07;;;5.10;99.90;;;;;;5070266;28;20031;-69
2023/01/21 10:57:59;;;;;;;40.10;17.90;;;5.20;99.90;;;;;;5059061;28;20559;-70
2023/01/21 11:00:28;;;;;;;41.65;17.20;;;5.20;99.90;;;;;;5066281;28;20793;-69
2023/01/21 11:03:07;;;;;;;39.47;17.48;;;5.30;99.90;;;;;;5063641;28;20029;-69
2023/01/21 11:05:33;;;;;;;42.85;18.48;;;5.30;99.90;;;;;;5060214;28;20036;-70
2023/01/21 11:08:00;;;;;;;42.25;16.92;;;5.40;99.90;;;;;;5066734;28;20115;-69
2023/01/21 11:10:27;;;;;;;38.65;16.38;;;5.40;99.90;;;;;;5066139;28;20025;-70
2023/01/21 11:12:53;;;;;;;37.75;17.05;;;5.50;99.90;;;;;;5075011;28;20024;-68
2023/01/21 11:15:21;;;;;;;39.47;16.13;;;5.70;99.90;;;;;;5057268;28;20104;-69
2023/01/21 11:17:49;;;;;;;39.15;15.15;;;5.90;99.90;;;;;;5067706;28;20504;-69
2023/01/21 11:20:28;;;;;;;37.50;15.48;;;6.00;99.90;;;;;;5056846;28;20028;-69
2023/01/21 11:22:53;;;;;;;43.85;16.52;;;6.20;99.90;;;;;;5058798;28;20029;-69
2023/01/21 11:25:41;;;;;;;35.47;14.70;;;7.00;99.90;;;;;;5083130;28;20044;-69
2023/01/21 11:28:25;;;;;;;34.35;15.30;;;8.00;99.90;;;;;;5064682;28;20032;-70
2023/01/21 11:31:05;;;;;;;31.77;14.50;;;9.20;99.90;;;;;;5065776;28;20101;-71
2023/01/21 11:33:31;;;;;;;32.00;13.60;;;10.20;99.90;;;;;;5059499;28;20048;-69
2023/01/21 11:36:09;;;;;;;31.30;13.95;;;11.10;99.90;;;;;;5065476;28;20112;-70
2023/01/21 11:38:35;;;;;;;29.73;13.75;;;12.00;99.90;;;;;;5068219;28;20061;-70
2023/01/21 11:41:08;;;;;;;29.42;14.10;;;12.60;99.90;;;;;;5064935;28;20404;-70
2023/01/21 11:43:45;;;;;;;26.45;12.75;;;13.10;99.90;;;;;;5059174;28;20069;-70
2023/01/21 11:46:26;;;;;;;28.33;13.35;;;13.40;99.90;;;;;;5045983;28;20082;-71
2023/01/21 11:49:05;;;;;;;26.65;12.32;;;13.80;99.90;;;;;;5071511;28;20127;-70
2023/01/21 11:51:31;;;;;;;25.70;12.48;;;14.10;99.90;;;;;;5065406;28;20031;-71
2023/01/21 11:54:20;;;;;;;22.05;10.43;;;14.50;99.90;;;;;;5065298;28;20631;-67
2023/01/21 11:56:57;;;;;;;24.73;11.10;;;14.70;99.60;;;;;;5066027;28;20029;-68
2023/01/21 11:59:40;;;;;;;21.77;10.23;;;14.80;99.80;;;;;;5063153;28;20075;-70
2023/01/21 12:02:17;;;;;;;20.65;10.02;;;15.00;99.60;;;;;;5054076;28;20106;-71
2023/01/21 12:04:47;;;;;;;19.02;9.70;;;15.20;99.10;;;;;;5064245;28;20086;-70
2023/01/21 12:07:23;;;;;;;18.13;8.60;;;15.30;98.30;;;;;;5071368;28;20032;-70
2023/01/21 12:09:53;;;;;;;19.77;9.50;;;15.40;98.10;;;;;;5073067;28;20113;-70
2023/01/21 12:12:37;;;;;;;21.33;10.27;;;15.30;96.80;;;;;;5067072;28;20052;-68
2023/01/21 12:15:40;;;;;;;24.10;10.65;;;15.20;97.90;;;;;;5073244;28;20021;-69
2023/01/21 12:18:52;;;;;;;21.65;10.05;;;15.10;97.90;;;;;;5068624;28;20110;-68
2023/01/21 12:21:45;;;;;;;24.43;11.20;;;15.10;97.20;;;;;;5074073;28;20103;-70
2023/01/21 12:24:36;;;;;;;22.15;11.30;;;14.90;97.00;;;;;;5059021;28;20108;-70
2023/01/21 12:27:24;;;;;;;23.45;11.32;;;14.70;97.50;;;;;;5073178;28;20035;-68
2023/01/21 12:30:14;;;;;;;22.33;10.93;;;14.40;97.10;;;;;;5068924;28;20063;-69
2023/01/21 12:32:55;;;;;;;25.77;13.13;;;14.20;98.40;;;;;;5053101;28;20032;-68
2023/01/21 12:35:25;;;;;;;27.77;13.70;;;14.10;98.20;;;;;;5062758;28;20049;-68
2023/01/21 12:38:10;;;;;;;27.42;13.02;;;13.80;97.70;;;;;;5073580;28;20046;-69
2023/01/21 12:40:46;;;;;;;28.95;14.10;;;13.60;98.10;;;;;;5072727;28;20052;-68
2023/01/21 12:43:19;;;;;;;26.50;12.80;;;13.10;98.60;;;;;;5073265;28;20037;-69
2023/01/21 12:45:50;;;;;;;25.75;12.65;;;12.70;99.40;;;;;;5072819;28;20037;-68
2023/01/21 12:48:25;;;;;;;23.30;12.20;;;12.50;99.10;;;;;;5072785;28;20070;-69
2023/01/21 12:50:58;;;;;;;25.35;12.75;;;12.20;99.70;;;;;;5073067;28;20067;-69
2023/01/21 12:53:39;;;;;;;25.58;12.35;;;11.70;99.30;;;;;;5073041;28;20021;-69
2023/01/21 12:56:08;;;;;;;22.17;10.48;;;11.40;99.90;;;;;;5073617;28;20037;-68
2023/01/21 12:58:39;;;;;;;23.30;10.27;;;11.30;99.90;;;;;;5072786;28;20460;-69